Time;durP1;ratioP1;P1;durP2;ratioP2;P2;SDS_P1;SDS_P2;PMS_P1;PMS_P2;Temp;Humidity;BMP_temperature;BMP_pressure;BME280_temperature;BME280_humidity;BME280_pressure;Samples;Min_cycle;Max_cycle;Signal;HPM_P1;HPM_P2
2022/04/29 00:01:55;;;;;;;11.50;7.88;;;14.30;90.20;;;;;;5029200;28;20626;-43
2022/04/29 00:04:27;;;;;;;13.38;7.88;;;14.30;90.20;;;;;;5026957;28;20193;-44
2022/04/29 00:06:54;;;;;;;14.00;7.67;;;14.20;90.30;;;;;;5028737;28;20566;-44
2022/04/29 00:09:22;;;;;;;10.43;8.07;;;14.20;90.20;;;;;;5029142;28;20327;-44
2022/04/29 00:11:50;;;;;;;9.82;7.35;;;14.20;90.10;;;;;;5045401;28;20257;-44
2022/04/29 00:14:17;;;;;;;13.40;8.85;;;14.20;90.30;;;;;;5042453;28;20686;-45
2022/04/29 00:16:45;;;;;;;12.40;8.00;;;14.20;90.50;;;;;;5048920;28;20327;-43
2022/04/29 00:19:12;;;;;;;16.27;8.77;;;14.10;90.30;;;;;;5042245;28;20212;-44
2022/04/29 00:21:41;;;;;;;11.57;7.85;;;14.10;90.60;;;;;;5048936;28;20336;-44
2022/04/29 00:24:12;;;;;;;13.20;7.25;;;14.00;90.50;;;;;;5044019;28;20204;-44
2022/04/29 00:26:42;;;;;;;15.43;8.37;;;14.00;90.30;;;;;;5038465;28;20983;-44
2022/04/29 00:29:09;;;;;;;11.70;8.07;;;13.90;90.60;;;;;;5029351;28;20220;-44
2022/04/29 00:31:42;;;;;;;13.43;8.20;;;13.90;90.80;;;;;;5037110;28;20621;-43
2022/04/29 00:34:09;;;;;;;14.25;8.48;;;13.80;90.60;;;;;;5039193;28;20224;-44
2022/04/29 00:36:36;;;;;;;12.20;7.40;;;13.80;90.60;;;;;;5028626;28;20252;-44
2022/04/29 00:39:06;;;;;;;13.63;8.73;;;13.80;90.60;;;;;;5054421;28;20191;-43
2022/04/29 00:41:37;;;;;;;12.20;7.93;;;13.70;90.80;;;;;;5067551;28;20195;-44
2022/04/29 00:44:07;;;;;;;13.10;8.27;;;13.70;90.40;;;;;;5055901;28;20209;-34
2022/04/29 00:46:40;;;;;;;12.80;8.83;;;13.70;90.60;;;;;;5028782;28;20201;-34
2022/04/29 00:49:10;;;;;;;16.03;8.73;;;13.60;90.60;;;;;;5039363;28;20240;-34
2022/04/29 00:51:38;;;;;;;14.80;7.75;;;13.60;90.50;;;;;;5046770;28;20678;-34
2022/04/29 00:54:09;;;;;;;12.97;8.10;;;13.60;90.50;;;;;;5044559;28;20263;-34
2022/04/29 00:56:39;;;;;;;10.63;7.63;;;13.50;90.60;;;;;;5047906;28;20246;-34
2022/04/29 00:59:15;;;;;;;12.83;8.13;;;13.50;90.50;;;;;;5029503;28;20219;-34
2022/04/29 01:01:46;;;;;;;11.03;8.50;;;13.50;90.60;;;;;;5035312;28;20263;-34
2022/04/29 01:04:21;;;;;;;14.23;9.03;;;13.50;90.70;;;;;;5038073;28;20228;-34
2022/04/29 01:06:48;;;;;;;12.47;8.80;;;13.50;90.70;;;;;;5039729;28;20579;-34
2022/04/29 01:09:15;;;;;;;12.73;8.77;;;13.50;90.70;;;;;;5047624;28;20258;-34
2022/04/29 01:11:45;;;;;;;13.87;8.50;;;13.50;90.80;;;;;;5044378;28;20196;-44
2022/04/29 01:14:12;;;;;;;14.10;8.87;;;13.40;90.70;;;;;;5033815;28;20559;-44
2022/04/29 01:16:41;;;;;;;11.37;8.93;;;13.40;90.70;;;;;;5047658;28;20216;-44
2022/04/29 01:19:09;;;;;;;13.60;8.77;;;13.40;90.70;;;;;;5029494;28;20675;-44
2022/04/29 01:21:36;;;;;;;11.60;8.43;;;13.40;90.60;;;;;;5047037;28;20223;-44
2022/04/29 01:24:03;;;;;;;10.17;8.83;;;13.40;90.80;;;;;;5044210;28;20266;-44
2022/04/29 01:26:31;;;;;;;13.23;8.50;;;13.30;90.90;;;;;;5048297;28;20231;-44
2022/04/29 01:28:59;;;;;;;15.48;8.98;;;13.30;90.80;;;;;;5047482;28;20266;-44
2022/04/29 01:31:29;;;;;;;12.07;8.70;;;13.30;90.80;;;;;;5035716;28;20231;-44
2022/04/29 01:33:57;;;;;;;14.40;9.13;;;13.30;90.90;;;;;;5028647;28;20258;-44
2022/04/29 01:36:24;;;;;;;15.27;9.23;;;13.30;90.90;;;;;;5036580;28;20208;-44
2022/04/29 01:38:51;;;;;;;12.23;8.73;;;13.30;90.80;;;;;;5050111;28;20674;-44
2022/04/29 01:41:18;;;;;;;9.63;8.50;;;13.30;91.00;;;;;;5030133;28;20205;-44
2022/04/29 01:43:46;;;;;;;12.37;8.53;;;13.30;90.80;;;;;;5043744;28;20594;-44
2022/04/29 01:46:15;;;;;;;13.32;8.88;;;13.30;91.00;;;;;;5045295;28;20200;-44
2022/04/29 01:48:43;;;;;;;14.80;8.20;;;13.30;91.10;;;;;;5046943;28;20733;-44
2022/04/29 01:51:10;;;;;;;11.80;8.43;;;13.20;90.90;;;;;;5048054;28;20702;-44
2022/04/29 01:53:37;;;;;;;13.77;9.30;;;13.20;91.00;;;;;;5037907;28;20254;-44
2022/04/29 01:56:05;;;;;;;12.07;8.93;;;13.20;90.90;;;;;;5030024;28;20746;-44
2022/04/29 01:58:32;;;;;;;11.93;8.33;;;13.20;91.00;;;;;;5031124;28;20290;-44
2022/04/29 02:01:00;;;;;;;13.00;9.27;;;13.20;90.90;;;;;;5031590;28;20197;-44
2022/04/29 02:03:27;;;;;;;13.40;8.53;;;13.20;91.00;;;;;;5030549;28;20217;-44
2022/04/29 02:05:54;;;;;;;12.97;8.93;;;13.20;91.00;;;;;;5044269;28;20211;-44
2022/04/29 02:08:22;;;;;;;15.50;8.43;;;13.20;91.00;;;;;;5031359;28;20705;-45
2022/04/29 02:10:50;;;;;;;14.45;9.82;;;13.10;91.10;;;;;;5030621;28;20263;-44
2022/04/29 02:13:18;;;;;;;12.87;8.67;;;13.10;91.00;;;;;;5034764;28;20353;-44
2022/04/29 02:15:46;;;;;;;11.33;8.47;;;13.10;91.00;;;;;;5048299;28;20204;-44
2022/04/29 02:18:13;;;;;;;15.13;8.23;;;13.10;91.00;;;;;;5050557;28;20247;-44
2022/04/29 02:20:43;;;;;;;15.67;9.27;;;13.10;91.00;;;;;;5049934;28;20192;-44
2022/04/29 02:23:10;;;;;;;13.73;8.67;;;13.10;91.40;;;;;;5049609;28;20670;-43
2022/04/29 02:25:38;;;;;;;15.73;9.30;;;13.10;91.20;;;;;;5035796;28;20646;-44
2022/04/29 02:28:07;;;;;;;13.87;8.20;;;13.00;91.40;;;;;;5030049;28;20252;-44
2022/04/29 02:30:37;;;;;;;12.83;8.47;;;13.10;91.30;;;;;;5038667;28;20728;-44
2022/04/29 02:33:04;;;;;;;12.67;8.53;;;13.00;91.10;;;;;;5050311;28;20576;-44
2022/04/29 02:35:32;;;;;;;13.47;8.03;;;13.00;91.00;;;;;;5039076;28;20213;-44
2022/04/29 02:37:59;;;;;;;13.50;8.67;;;13.00;91.30;;;;;;5036721;28;20298;-44
2022/04/29 02:40:26;;;;;;;18.50;8.60;;;13.00;91.10;;;;;;5070633;28;20310;-44
2022/04/29 02:42:53;;;;;;;12.80;8.93;;;13.00;91.20;;;;;;5066061;28;20311;-44
2022/04/29 02:45:20;;;;;;;13.47;8.37;;;13.00;91.20;;;;;;5043851;28;20771;-44
2022/04/29 02:47:48;;;;;;;11.27;8.27;;;13.00;91.10;;;;;;5043903;28;20501;-34
2022/04/29 02:50:18;;;;;;;12.07;8.17;;;13.00;91.20;;;;;;5050807;28;20200;-34
2022/04/29 02:52:47;;;;;;;11.53;7.93;;;12.90;91.10;;;;;;5049862;28;20583;-34
2022/04/29 02:55:14;;;;;;;10.50;8.20;;;12.90;91.10;;;;;;5047017;28;20776;-34
2022/04/29 02:57:44;;;;;;;13.13;7.97;;;12.90;91.10;;;;;;5050098;28;20232;-34
2022/04/29 03:00:11;;;;;;;11.87;8.20;;;12.90;91.10;;;;;;5045795;28;20692;-34
2022/04/29 03:02:39;;;;;;;12.43;8.53;;;12.90;91.40;;;;;;5029804;28;20688;-34
2022/04/29 03:05:07;;;;;;;12.03;8.20;;;12.90;91.30;;;;;;5039683;28;20671;-34
2022/04/29 03:07:34;;;;;;;11.07;8.60;;;12.90;91.20;;;;;;5032873;28;20204;-34
2022/04/29 03:10:03;;;;;;;12.07;8.83;;;12.90;91.20;;;;;;5030066;28;20789;-34
2022/04/29 03:12:30;;;;;;;13.50;9.03;;;12.90;91.20;;;;;;5028511;28;20205;-34
2022/04/29 03:15:15;;;;;;;12.97;8.93;;;12.80;91.40;;;;;;5038925;28;20738;-34
2022/04/29 03:20:37;;;;;;;11.80;8.23;;;12.80;91.30;;;;;;5030037;28;20251;-34
2022/04/29 03:23:06;;;;;;;13.13;8.57;;;12.80;91.30;;;;;;5049598;28;20208;-44
2022/04/29 03:25:34;;;;;;;12.90;8.60;;;12.80;91.40;;;;;;5046880;28;20563;-44
2022/04/29 03:28:02;;;;;;;12.67;8.47;;;12.80;91.40;;;;;;5047266;28;20212;-44
2022/04/29 03:30:29;;;;;;;14.93;8.97;;;12.80;91.30;;;;;;5029805;28;20757;-44
2022/04/29 03:32:59;;;;;;;14.70;8.40;;;12.80;91.50;;;;;;5028865;28;20304;-44
2022/04/29 03:35:26;;;;;;;13.47;8.00;;;12.80;91.40;;;;;;5029853;28;20216;-44
2022/04/29 03:37:56;;;;;;;15.25;8.88;;;12.80;91.50;;;;;;5031138;28;20252;-44
2022/04/29 03:40:25;;;;;;;12.40;7.77;;;12.80;91.50;;;;;;5029680;28;20203;-44
2022/04/29 03:42:56;;;;;;;14.43;8.57;;;12.80;91.50;;;;;;5032215;28;20755;-44
2022/04/29 03:45:25;;;;;;;10.67;7.90;;;12.80;91.60;;;;;;5040200;28;20216;-34
2022/04/29 03:47:55;;;;;;;12.67;9.43;;;12.70;91.60;;;;;;5048219;28;20282;-34
2022/04/29 03:50:25;;;;;;;12.00;7.90;;;12.80;91.60;;;;;;5036298;28;20250;-35
2022/04/29 03:53:00;;;;;;;13.27;8.53;;;12.80;91.50;;;;;;5031838;28;20245;-44
2022/04/29 03:55:32;;;;;;;14.17;8.50;;;12.80;91.60;;;;;;5039665;28;20326;-44
2022/04/29 03:58:02;;;;;;;14.43;9.23;;;12.70;91.70;;;;;;5049048;28;20317;-45
2022/04/29 04:00:36;;;;;;;12.27;8.57;;;12.70;91.70;;;;;;5049795;28;20188;-44
2022/04/29 04:03:06;;;;;;;14.90;8.00;;;12.70;91.60;;;;;;5048529;28;20574;-44
2022/04/29 04:05:34;;;;;;;11.03;7.93;;;12.70;91.60;;;;;;5045987;28;20644;-44
2022/04/29 04:08:01;;;;;;;10.30;7.97;;;12.70;91.50;;;;;;5031080;28;20197;-44
2022/04/29 04:10:31;;;;;;;12.60;8.57;;;12.70;91.60;;;;;;5047826;28;20262;-44
2022/04/29 04:12:58;;;;;;;13.43;8.63;;;12.70;91.60;;;;;;5037556;28;20253;-44
2022/04/29 04:15:26;;;;;;;12.87;8.83;;;12.70;91.80;;;;;;5027020;28;20205;-45
2022/04/29 04:17:55;;;;;;;14.73;9.40;;;12.70;92.00;;;;;;5044492;28;20216;-44
2022/04/29 04:20:26;;;;;;;12.77;9.20;;;12.70;91.80;;;;;;5048659;28;20200;-44
2022/04/29 04:22:53;;;;;;;10.03;8.30;;;12.70;91.70;;;;;;5040415;28;20244;-43
2022/04/29 04:25:20;;;;;;;16.80;8.70;;;12.70;91.80;;;;;;5029059;28;20266;-44
2022/04/29 04:27:47;;;;;;;14.77;8.60;;;12.60;91.80;;;;;;5026894;28;20635;-44
2022/04/29 04:30:18;;;;;;;13.17;8.13;;;12.60;91.80;;;;;;5040383;28;20694;-45
2022/04/29 04:32:48;;;;;;;15.17;8.80;;;12.70;91.70;;;;;;5048161;28;20204;-44
2022/04/29 04:35:17;;;;;;;9.30;7.87;;;12.60;91.70;;;;;;5042545;28;20204;-44
2022/04/29 04:37:44;;;;;;;12.17;8.80;;;12.60;91.70;;;;;;5048820;28;20315;-34
2022/04/29 04:40:12;;;;;;;12.50;8.77;;;12.60;91.90;;;;;;5068445;28;20240;-34
2022/04/29 04:42:44;;;;;;;12.97;8.87;;;12.60;91.90;;;;;;5052972;28;20208;-44
2022/04/29 04:45:11;;;;;;;15.73;9.47;;;12.50;91.70;;;;;;5033823;28;20193;-34
2022/04/29 04:47:39;;;;;;;12.60;8.67;;;12.50;91.70;;;;;;5029036;28;20275;-34
2022/04/29 04:50:06;;;;;;;16.20;9.87;;;12.50;91.80;;;;;;5027764;28;20249;-34
2022/04/29 04:52:34;;;;;;;13.13;9.10;;;12.40;91.80;;;;;;5026552;28;20261;-34
2022/04/29 04:55:05;;;;;;;12.70;9.23;;;12.40;91.90;;;;;;5037374;28;20303;-34
2022/04/29 04:57:33;;;;;;;16.00;9.40;;;12.40;91.80;;;;;;5047208;28;20200;-34
2022/04/29 05:00:02;;;;;;;17.30;9.70;;;12.40;91.90;;;;;;5041325;28;20196;-34
2022/04/29 05:02:29;;;;;;;13.90;9.63;;;12.40;91.70;;;;;;5032916;28;20238;-34
2022/04/29 05:04:57;;;;;;;14.47;9.43;;;12.40;91.80;;;;;;5032530;28;20216;-34
2022/04/29 05:07:25;;;;;;;15.80;9.43;;;12.40;91.80;;;;;;5034348;28;20524;-34
2022/04/29 05:09:53;;;;;;;15.50;9.30;;;12.40;91.90;;;;;;5032644;28;20204;-34
2022/04/29 05:12:20;;;;;;;16.77;9.77;;;12.40;91.90;;;;;;5032121;28;20296;-34
2022/04/29 05:14:47;;;;;;;11.93;8.67;;;12.40;91.80;;;;;;5047463;28;20215;-34
2022/04/29 05:17:14;;;;;;;11.33;8.73;;;12.40;91.90;;;;;;5046913;28;20203;-34
2022/04/29 05:19:43;;;;;;;16.73;9.90;;;12.40;91.80;;;;;;5036045;28;20221;-34
2022/04/29 05:22:13;;;;;;;13.50;9.50;;;12.40;92.10;;;;;;5044515;28;20291;-34
2022/04/29 05:24:40;;;;;;;15.40;8.80;;;12.40;92.10;;;;;;5041035;28;20212;-34
2022/04/29 05:27:10;;;;;;;15.83;9.30;;;12.40;92.00;;;;;;5048346;28;20675;-34
2022/04/29 05:29:39;;;;;;;13.83;8.43;;;12.40;92.10;;;;;;5048369;28;20281;-34
2022/04/29 05:32:10;;;;;;;12.43;9.20;;;12.40;92.00;;;;;;5037478;28;20220;-34
2022/04/29 05:34:37;;;;;;;13.40;9.07;;;12.40;92.00;;;;;;5048592;28;20298;-34
2022/04/29 05:37:05;;;;;;;13.90;9.07;;;12.40;92.00;;;;;;5049082;28;20296;-34
2022/04/29 05:42:22;;;;;;;22.45;9.85;;;12.50;92.20;;;;;;5048265;28;20220;-34
2022/04/29 05:44:50;;;;;;;17.00;9.90;;;12.50;92.10;;;;;;5046625;28;20216;-34
2022/04/29 05:47:20;;;;;;;14.97;9.07;;;12.40;92.10;;;;;;5051050;28;20626;-34
2022/04/29 05:49:47;;;;;;;17.23;9.63;;;12.50;92.10;;;;;;5044765;28;20254;-33
2022/04/29 05:52:17;;;;;;;12.47;9.87;;;12.50;92.20;;;;;;5040850;28;21101;-33
2022/04/29 05:54:45;;;;;;;14.47;8.93;;;12.50;92.20;;;;;;5033312;28;20228;-33
2022/04/29 05:57:14;;;;;;;12.03;8.87;;;12.50;92.20;;;;;;5041050;28;20207;-33
2022/04/29 05:59:42;;;;;;;14.30;8.97;;;12.50;92.20;;;;;;5051037;28;20297;-33
2022/04/29 06:02:10;;;;;;;12.83;9.23;;;12.50;92.20;;;;;;5040105;28;20227;-34
2022/04/29 06:04:38;;;;;;;14.10;9.73;;;12.60;92.20;;;;;;5030491;28;20300;-34
2022/04/29 06:07:05;;;;;;;12.82;9.75;;;12.60;92.40;;;;;;5034602;28;20197;-33
2022/04/29 06:09:32;;;;;;;15.77;9.70;;;12.60;92.30;;;;;;5035802;28;20339;-34
2022/04/29 06:11:59;;;;;;;14.13;9.63;;;12.60;92.40;;;;;;5031453;28;20216;-34
2022/04/29 06:14:28;;;;;;;13.17;8.67;;;12.60;92.30;;;;;;5033390;28;20240;-33
2022/04/29 06:16:55;;;;;;;14.73;9.65;;;12.60;92.30;;;;;;5042946;28;20224;-34
2022/04/29 06:19:22;;;;;;;15.87;9.37;;;12.60;92.30;;;;;;5046719;28;20593;-33
2022/04/29 06:21:52;;;;;;;17.17;10.70;;;12.70;92.40;;;;;;5050879;28;20215;-34
2022/04/29 06:24:19;;;;;;;17.50;10.63;;;12.70;92.60;;;;;;5034295;28;20200;-33
2022/04/29 06:26:47;;;;;;;15.57;9.80;;;12.70;92.60;;;;;;5043980;28;20212;-34
2022/04/29 06:29:15;;;;;;;15.67;10.03;;;12.60;92.60;;;;;;5036321;28;20208;-34
2022/04/29 06:31:42;;;;;;;17.10;10.00;;;12.70;92.60;;;;;;5050246;28;20219;-34
2022/04/29 06:34:10;;;;;;;14.53;8.77;;;12.70;92.60;;;;;;5031691;28;20228;-34
2022/04/29 06:36:37;;;;;;;13.00;10.07;;;12.70;92.60;;;;;;5047292;28;20326;-34
2022/04/29 06:39:06;;;;;;;16.83;10.77;;;12.80;92.70;;;;;;5049770;28;20220;-33
2022/04/29 06:41:35;;;;;;;15.40;10.00;;;12.80;92.90;;;;;;5040513;28;20196;-33
2022/04/29 06:44:03;;;;;;;15.23;10.40;;;12.90;92.80;;;;;;5043576;28;20593;-34
2022/04/29 06:46:32;;;;;;;14.73;10.47;;;12.90;92.80;;;;;;5047621;28;20200;-34
2022/04/29 06:49:02;;;;;;;17.20;9.63;;;13.00;92.80;;;;;;5049197;28;20204;-33
2022/04/29 06:51:29;;;;;;;14.77;10.70;;;13.00;92.80;;;;;;5050038;28;20250;-34
2022/04/29 06:53:56;;;;;;;13.80;10.30;;;13.10;92.90;;;;;;5036421;28;20215;-33
2022/04/29 06:56:23;;;;;;;14.10;10.20;;;13.10;92.90;;;;;;5028535;28;20245;-34
2022/04/29 06:58:51;;;;;;;14.97;10.43;;;13.20;92.90;;;;;;5034936;28;20224;-34
2022/04/29 07:01:18;;;;;;;17.83;10.00;;;13.20;92.90;;;;;;5029873;28;20235;-34
2022/04/29 07:03:48;;;;;;;12.80;10.30;;;13.30;93.00;;;;;;5036756;28;20235;-34
2022/04/29 07:06:15;;;;;;;12.83;9.80;;;13.30;93.00;;;;;;5040669;28;20200;-34
2022/04/29 07:08:43;;;;;;;14.95;10.68;;;13.40;93.00;;;;;;5028381;28;20301;-34
2022/04/29 07:11:10;;;;;;;13.77;10.50;;;13.40;93.10;;;;;;5029555;28;20212;-35
2022/04/29 07:13:42;;;;;;;16.90;10.67;;;13.40;93.10;;;;;;5028279;28;20651;-36
2022/04/29 07:16:09;;;;;;;19.40;10.60;;;13.50;93.10;;;;;;5032995;28;20727;-34
2022/04/29 07:18:37;;;;;;;18.17;10.37;;;13.50;93.10;;;;;;5037288;28;20236;-35
2022/04/29 07:21:05;;;;;;;14.43;10.73;;;13.50;93.20;;;;;;5039185;28;20200;-34
2022/04/29 07:23:32;;;;;;;13.70;9.63;;;13.60;93.20;;;;;;5029979;28;20197;-48
2022/04/29 07:25:59;;;;;;;16.67;10.43;;;13.60;93.20;;;;;;5029919;28;20197;-49
2022/04/29 07:28:26;;;;;;;12.18;9.38;;;13.60;93.20;;;;;;5031077;28;20715;-48
2022/04/29 07:30:56;;;;;;;15.40;10.83;;;13.70;93.20;;;;;;5031243;28;20205;-47
2022/04/29 07:33:24;;;;;;;16.50;11.43;;;13.70;93.20;;;;;;5029931;28;20217;-47
2022/04/29 07:41:44;;;;;;;15.33;11.60;;;13.80;93.50;;;;;;5055092;28;20633;-49
2022/04/29 07:44:15;;;;;;;16.27;10.80;;;13.80;93.30;;;;;;5048048;28;20196;-47
2022/04/29 07:46:45;;;;;;;12.67;9.37;;;13.80;93.30;;;;;;5045634;28;20277;-47
2022/04/29 07:49:15;;;;;;;14.23;10.03;;;13.80;93.30;;;;;;5027341;28;20733;-46
2022/04/29 07:51:43;;;;;;;14.33;10.57;;;13.90;93.30;;;;;;5055766;28;20689;-47
2022/04/29 07:54:11;;;;;;;13.73;9.87;;;14.00;93.40;;;;;;5041542;28;20232;-47
2022/04/29 07:56:39;;;;;;;12.13;10.40;;;14.10;93.40;;;;;;5028905;28;20659;-47
2022/04/29 07:59:09;;;;;;;14.60;10.90;;;14.10;93.50;;;;;;5046988;28;20679;-48
2022/04/29 08:01:40;;;;;;;17.77;11.27;;;14.20;93.60;;;;;;5039355;28;20200;-46
2022/04/29 08:04:07;;;;;;;15.98;11.77;;;14.20;93.50;;;;;;5039713;28;20327;-48
2022/04/29 08:06:35;;;;;;;14.67;10.97;;;14.20;93.50;;;;;;5033362;28;20760;-35
2022/04/29 08:09:22;;;;;;;14.77;10.43;;;14.20;93.50;;;;;;5031772;28;20201;-34
2022/04/29 08:11:49;;;;;;;16.60;11.25;;;14.30;93.50;;;;;;5041355;28;20266;-34
2022/04/29 08:14:20;;;;;;;15.60;10.17;;;14.30;93.60;;;;;;5047534;28;20686;-35
2022/04/29 08:17:10;;;;;;;16.33;12.40;;;14.30;93.60;;;;;;5047627;28;20208;-35
2022/04/29 08:19:37;;;;;;;15.80;11.48;;;14.40;93.80;;;;;;5048039;28;20285;-34
2022/04/29 08:22:04;;;;;;;16.77;12.40;;;14.40;93.60;;;;;;5045100;28;20286;-34
2022/04/29 08:24:34;;;;;;;18.33;11.45;;;14.40;93.80;;;;;;5033789;28;20220;-34
2022/04/29 08:27:01;;;;;;;17.90;13.45;;;14.40;93.90;;;;;;5033863;28;20332;-49
2022/04/29 08:29:31;;;;;;;16.00;11.10;;;14.40;93.70;;;;;;5036252;28;20687;-48
2022/04/29 08:31:58;;;;;;;18.77;12.70;;;14.40;93.70;;;;;;5056299;28;20208;-48
2022/04/29 08:34:26;;;;;;;13.77;11.30;;;14.40;93.70;;;;;;5061840;28;20234;-49
2022/04/29 08:36:55;;;;;;;15.07;11.03;;;14.50;93.70;;;;;;5054619;28;20212;-49
2022/04/29 08:39:25;;;;;;;12.67;11.07;;;14.50;93.60;;;;;;5036125;28;20240;-50
2022/04/29 08:41:53;;;;;;;13.70;10.93;;;14.50;93.60;;;;;;5033807;28;20200;-49
2022/04/29 08:44:20;;;;;;;13.37;10.90;;;14.60;93.70;;;;;;5042192;28;20753;-48
2022/04/29 08:46:48;;;;;;;17.20;11.60;;;14.60;93.70;;;;;;5028684;28;20786;-37
2022/04/29 08:49:16;;;;;;;15.77;12.20;;;14.60;93.70;;;;;;5027583;28;20204;-36
2022/04/29 08:51:44;;;;;;;16.77;12.00;;;14.70;93.70;;;;;;5028470;28;20643;-36
2022/04/29 08:58:36;;;;;;;17.70;11.70;;;14.70;93.70;;;;;;5029320;28;20306;-36
2022/04/29 08:59:48;;;;;;;18.27;12.33;;;14.70;93.80;;;;;;5026396;28;20328;-36
2022/04/29 09:02:15;;;;;;;15.77;11.70;;;14.70;93.70;;;;;;5027233;28;20197;-36
2022/04/29 09:04:43;;;;;;;12.98;10.70;;;14.70;93.70;;;;;;5028015;28;20215;-36
2022/04/29 09:07:13;;;;;;;17.97;12.67;;;14.80;93.70;;;;;;5044500;28;20211;-36
2022/04/29 09:09:40;;;;;;;20.00;12.43;;;14.70;93.80;;;;;;5050809;28;20655;-36
2022/04/29 09:12:17;;;;;;;17.75;13.32;;;14.70;93.80;;;;;;5046393;28;20660;-36
2022/04/29 09:14:44;;;;;;;17.63;12.15;;;14.70;93.70;;;;;;5044284;28;20599;-36
2022/04/29 09:17:39;;;;;;;18.37;12.57;;;14.70;93.60;;;;;;5032947;28;20295;-36
2022/04/29 09:20:18;;;;;;;22.87;11.47;;;14.70;93.70;;;;;;5044500;28;20224;-36
2022/04/29 09:22:49;;;;;;;20.07;13.00;;;14.70;93.70;;;;;;5033863;28;20315;-36
2022/04/29 09:25:17;;;;;;;20.20;12.93;;;14.70;93.70;;;;;;5030519;28;20715;-36
2022/04/29 09:28:00;;;;;;;18.67;13.07;;;14.60;93.80;;;;;;5027369;28;20320;-36
2022/04/29 09:30:58;;;;;;;20.30;13.00;;;14.60;94.00;;;;;;5033233;28;20200;-36
2022/04/29 09:33:27;;;;;;;16.90;12.40;;;14.60;93.70;;;;;;5033998;28;20239;-36
2022/04/29 09:35:57;;;;;;;15.32;11.75;;;14.60;93.70;;;;;;5039638;28;20232;-36
2022/04/29 09:41:24;;;;;;;17.10;12.43;;;14.60;93.80;;;;;;5037003;28;20295;-35
2022/04/29 09:43:52;;;;;;;17.03;13.00;;;14.70;93.70;;;;;;5032901;28;20215;-36
2022/04/29 09:46:22;;;;;;;18.33;12.52;;;14.70;93.70;;;;;;5035919;28;20576;-36
2022/04/29 09:48:55;;;;;;;17.60;12.47;;;14.70;93.70;;;;;;5042921;28;20681;-36
2022/04/29 09:51:51;;;;;;;21.30;13.45;;;14.70;93.80;;;;;;5031538;28;20691;-36
2022/04/29 09:54:26;;;;;;;15.80;12.93;;;14.70;94.00;;;;;;5035561;28;20744;-36
2022/04/29 09:57:14;;;;;;;19.20;13.00;;;14.70;93.90;;;;;;5027672;28;20232;-36
2022/04/29 09:59:46;;;;;;;18.90;14.25;;;14.70;94.00;;;;;;5026835;28;20687;-37
2022/04/29 10:02:17;;;;;;;19.33;14.70;;;14.70;94.10;;;;;;5030034;28;20283;-36
2022/04/29 10:04:46;;;;;;;18.43;13.13;;;14.70;94.20;;;;;;5037386;28;20193;-37
2022/04/29 10:07:19;;;;;;;18.15;12.48;;;14.70;94.00;;;;;;5039005;28;20301;-36
2022/04/29 10:09:52;;;;;;;14.33;11.53;;;14.80;94.00;;;;;;5031369;28;20419;-36
2022/04/29 10:12:21;;;;;;;18.63;13.67;;;14.80;94.00;;;;;;5027268;28;20201;-36
2022/04/29 10:14:52;;;;;;;23.05;14.18;;;14.90;94.20;;;;;;5034302;28;20212;-36
2022/04/29 10:23:10;;;;;;;17.08;11.95;;;14.90;94.20;;;;;;5039445;28;20200;-36
2022/04/29 10:25:45;;;;;;;22.43;13.90;;;14.80;94.00;;;;;;5030166;28;20196;-36
2022/04/29 10:28:26;;;;;;;19.27;13.43;;;14.90;94.20;;;;;;5030381;28;20208;-37
2022/04/29 10:31:19;;;;;;;26.77;14.53;;;14.90;94.10;;;;;;5032775;28;20196;-37
2022/04/29 10:33:46;;;;;;;20.55;13.00;;;14.80;94.30;;;;;;5049662;28;20254;-36
2022/04/29 10:36:14;;;;;;;18.85;13.18;;;14.80;94.10;;;;;;5050441;28;20242;-36
2022/04/29 10:38:46;;;;;;;19.73;14.48;;;14.80;94.00;;;;;;5037316;28;20211;-39
2022/04/29 10:41:17;;;;;;;19.75;14.38;;;14.80;94.10;;;;;;5029667;28;20583;-38
2022/04/29 10:43:50;;;;;;;16.17;12.70;;;14.80;94.10;;;;;;5037876;28;20219;-38
2022/04/29 10:46:21;;;;;;;17.93;13.00;;;14.80;94.10;;;;;;5032801;28;20197;-38
2022/04/29 10:48:52;;;;;;;19.57;13.30;;;14.90;94.20;;;;;;5033115;28;20193;-37
2022/04/29 10:51:25;;;;;;;18.47;14.23;;;14.90;94.20;;;;;;5037929;28;20238;-38
2022/04/29 10:53:57;;;;;;;21.20;13.00;;;14.90;94.30;;;;;;5050439;28;20291;-38
2022/04/29 10:56:31;;;;;;;23.83;12.77;;;14.90;94.30;;;;;;5034651;28;20237;-38
2022/04/29 10:59:04;;;;;;;15.13;11.33;;;15.10;94.30;;;;;;5042386;28;20224;-36
2022/04/29 11:01:33;;;;;;;18.02;13.55;;;15.20;94.40;;;;;;5048057;28;20208;-36
2022/04/29 11:04:03;;;;;;;15.82;12.80;;;15.30;94.50;;;;;;5033737;28;20634;-38
2022/04/29 11:06:47;;;;;;;14.98;12.70;;;15.50;94.60;;;;;;5030872;28;20416;-38
2022/04/29 11:09:24;;;;;;;18.92;13.93;;;15.60;94.60;;;;;;5031169;28;20231;-38
2022/04/29 11:11:52;;;;;;;19.27;13.65;;;15.70;94.80;;;;;;5030666;28;20215;-36
2022/04/29 11:14:22;;;;;;;16.42;13.60;;;15.80;94.70;;;;;;5030225;28;20208;-38
2022/04/29 11:16:53;;;;;;;19.27;13.65;;;15.90;94.70;;;;;;5029213;28;20224;-39
2022/04/29 11:19:34;;;;;;;22.17;14.55;;;16.00;94.60;;;;;;5028572;28;20315;-38
2022/04/29 11:24:52;;;;;;;17.50;13.07;;;16.00;94.50;;;;;;5041134;28;20623;-39
2022/04/29 11:27:25;;;;;;;18.95;13.57;;;16.00;94.50;;;;;;5049365;28;20637;-36
2022/04/29 11:29:56;;;;;;;17.20;11.25;;;16.00;94.60;;;;;;5036472;28;20211;-37
2022/04/29 11:32:24;;;;;;;16.73;13.20;;;16.10;94.60;;;;;;5048172;28;20273;-36
2022/04/29 11:35:00;;;;;;;16.67;12.90;;;16.10;94.60;;;;;;5018245;28;20641;-37
2022/04/29 11:37:36;;;;;;;20.03;14.67;;;16.20;94.70;;;;;;5031084;28;20557;-36
2022/04/29 11:40:07;;;;;;;18.65;13.32;;;16.30;94.90;;;;;;5037935;28;20217;-36
2022/04/29 11:42:35;;;;;;;19.02;13.73;;;16.30;94.60;;;;;;5031377;28;20230;-36
2022/04/29 11:45:07;;;;;;;19.63;15.15;;;16.30;94.40;;;;;;5043159;28;20208;-36
2022/04/29 11:47:36;;;;;;;20.38;13.88;;;16.30;94.40;;;;;;5034035;28;20767;-36
2022/04/29 11:50:07;;;;;;;21.58;14.00;;;16.30;94.40;;;;;;5035942;28;20330;-36
2022/04/29 11:52:36;;;;;;;17.17;12.82;;;16.40;94.40;;;;;;5044453;28;20270;-36
2022/04/29 11:55:19;;;;;;;18.93;13.30;;;16.50;94.60;;;;;;5048628;28;20221;-36
2022/04/29 11:57:50;;;;;;;21.02;14.18;;;16.50;94.50;;;;;;5049332;28;20204;-36
2022/04/29 12:00:25;;;;;;;17.33;14.43;;;16.60;94.40;;;;;;5029475;28;20231;-36
2022/04/29 12:02:57;;;;;;;19.42;13.80;;;16.70;94.60;;;;;;5037603;28;20552;-40
2022/04/29 12:05:26;;;;;;;20.70;14.40;;;16.80;94.60;;;;;;5039834;28;20207;-39
2022/04/29 12:07:54;;;;;;;19.05;13.15;;;16.80;94.60;;;;;;5031019;28;20204;-40
2022/04/29 12:10:23;;;;;;;20.73;14.32;;;16.90;94.70;;;;;;5048554;28;20212;-37
2022/04/29 12:12:55;;;;;;;22.20;14.32;;;16.90;94.60;;;;;;5039743;28;20204;-38
2022/04/29 12:15:27;;;;;;;16.27;12.60;;;17.00;94.70;;;;;;5028599;28;20205;-37
2022/04/29 12:17:58;;;;;;;17.17;13.70;;;17.10;95.10;;;;;;5026038;28;20594;-38
2022/04/29 12:20:27;;;;;;;21.02;14.20;;;17.10;94.80;;;;;;5031373;28;20224;-38
2022/04/29 12:22:54;;;;;;;17.30;13.35;;;17.10;94.70;;;;;;5040398;28;20573;-40
2022/04/29 12:25:31;;;;;;;16.85;14.13;;;17.10;94.80;;;;;;5042136;28;20204;-38
2022/04/29 12:28:21;;;;;;;15.68;12.60;;;17.10;94.60;;;;;;5027636;28;20213;-38
2022/04/29 12:37:04;;;;;;;18.70;13.00;;;17.30;94.80;;;;;;5036187;28;20217;-39
2022/04/29 12:39:37;;;;;;;16.92;13.73;;;17.30;94.80;;;;;;5030765;28;20204;-40
2022/04/29 12:42:08;;;;;;;18.20;15.13;;;17.40;95.00;;;;;;5044462;28;20204;-39
2022/04/29 12:47:38;;;;;;;17.85;13.35;;;17.50;95.00;;;;;;5067704;28;20206;-38
2022/04/29 12:50:17;;;;;;;22.58;15.23;;;17.60;95.00;;;;;;5063808;28;20199;-39
2022/04/29 12:52:51;;;;;;;17.73;14.50;;;17.60;94.80;;;;;;5026264;28;20291;-40
2022/04/29 12:55:19;;;;;;;17.77;14.98;;;17.60;94.70;;;;;;5032258;28;20244;-39
2022/04/29 12:57:46;;;;;;;21.40;14.45;;;17.60;94.50;;;;;;5036183;28;20200;-39
2022/04/29 13:00:26;;;;;;;18.67;13.77;;;17.60;94.50;;;;;;5028206;28;20224;-39
2022/04/29 13:03:03;;;;;;;16.10;12.60;;;17.60;94.70;;;;;;5029494;28;20222;-40
2022/04/29 13:05:34;;;;;;;19.73;14.40;;;17.60;94.80;;;;;;5031977;28;20303;-39
2022/04/29 13:08:03;;;;;;;19.23;13.93;;;17.60;94.80;;;;;;5024473;28;20207;-40
2022/04/29 13:10:41;;;;;;;17.05;13.80;;;17.70;94.50;;;;;;5024597;28;20220;-40
2022/04/29 13:13:08;;;;;;;19.10;14.52;;;17.70;94.80;;;;;;5024604;28;20197;-40
2022/04/29 13:15:38;;;;;;;21.30;15.43;;;17.80;94.80;;;;;;5034236;28;20211;-40
2022/04/29 13:18:12;;;;;;;18.98;14.40;;;17.80;94.50;;;;;;5026764;28;20576;-39
2022/04/29 13:20:43;;;;;;;19.40;14.95;;;17.80;94.50;;;;;;5034100;28;20267;-40
2022/04/29 13:23:15;;;;;;;21.33;15.18;;;17.80;94.50;;;;;;5033685;28;20654;-40